NEG weather

Negril Airport
Negril, Hanover, Jamaica

Public forecast

Using degrees Celsius for public forecast. Weather courtesy of forecast.io.

METAR (pilot weather report)

Closest report is Sangster International Airport, 25.7 nm (47.7 km) ENE. Retrieved 2019/03/24 04:00 UTC (29 minutes ago):

MKJS 240400Z 12003KT 9999 SCT022 25/22 Q1017

TAF (pilot weather forecast)

Forecast is more than 12 hours old.

Closest forecast is Sangster International Airport, 25.7 nm (47.7 km) ENE. Retrieved 2019/03/23 00:11 UTC (1 day ago):

TAF MKJS 232315Z 2400/2424 VRB03KT 9999 FEW022 SCT032 BECMG 2414/2416 07015KT TEMPO 2418/2421 8000 SHRA BKN018